N.dadayli — TCCW7 — position and weather

sailwx.info

Track history (hours):
 
Tides and Currents Weather Stations Pressure Air Temp Water Temp Dewpoint Dewpoint Depression Visibility Wind Speed Wind Dir Waves Ship Positions

N.dadayli

Last reported at 2014-Sep-17 21:33 UTC. Time now 2014-Sep-18 19:49 UTC.
Position N 42°08' E 007°19'.

Length 101 m; draft 8.3 m.

Type: Ship. MMSI: 271000768.

Date/timePositionNaut miles runAvg speedWind from/ knotsBaromVisibWave heightAir tempDewpointWater temp
2014-Sep-17 21:33N 42°08' E 007°19'1110.4
2014-Sep-17 20:28N 42°15' E 007°06'1010.6
2014-Sep-17 19:32N 42°20' E 006°55'1210.9
2014-Sep-17 18:27N 42°27' E 006°42'1010.8
2014-Sep-17 17:33N 42°32' E 006°31'1210.6
2014-Sep-17 16:24N 42°39' E 006°17'910.3
2014-Sep-17 15:31N 42°44' E 006°07'10 9.7
2014-Sep-17 14:29N 42°50' E 005°55'9 9.0
2014-Sep-17 13:31N 42°54' E 005°45'9 9.0
2014-Sep-17 12:32N 42°59' E 005°36'17 8.6
2014-Sep-17 10:32N 43°09' E 005°16'8 8.6
2014-Sep-17 09:33N 43°14' E 005°07'9 9.3
2014-Sep-17 08:33N 43°21' E 004°58'6 5.8
2014-Sep-17 07:33N 43°26' E 004°54'0 0.0
2014-Sep-17 06:33N 43°26' E 004°54'0 0.0
2014-Sep-17 05:33N 43°26' E 004°54'0 0.0
2014-Sep-17 04:33N 43°26' E 004°54'0 0.0
2014-Sep-17 03:33N 43°26' E 004°54'0 0.0
2014-Sep-17 02:33N 43°26' E 004°54'0 0.0
2014-Sep-17 01:33N 43°26' E 004°54'0 0.0
2014-Sep-17 00:33N 43°26' E 004°54'0 0.0
2014-Sep-16 23:33N 43°26' E 004°54'0 0.0
2014-Sep-16 22:33N 43°26' E 004°54'0 0.0
2014-Sep-16 21:33N 43°26' E 004°54'0 0.0
2014-Sep-16 20:33N 43°26' E 004°54'0 0.0
2014-Sep-16 19:33N 43°26' E 004°54'0 0.0
2014-Sep-16 18:33N 43°26' E 004°54'0 0.0
2014-Sep-16 17:33N 43°26' E 004°54'0 0.0
2014-Sep-16 16:33N 43°26' E 004°54'0 0.0
2014-Sep-16 15:33N 43°26' E 004°54'0 0.0
2014-Sep-16 14:33N 43°26' E 004°54'0 0.0
2014-Sep-16 13:33N 43°26' E 004°54'0 0.0
2014-Sep-16 12:33N 43°26' E 004°54'0 0.0
2014-Sep-16 11:33N 43°26' E 004°54'0 0.0
2014-Sep-16 10:33N 43°26' E 004°54'0 0.0
2014-Sep-16 09:33N 43°26' E 004°54'0 0.0
2014-Sep-16 08:33N 43°26' E 004°54'0 0.0
2014-Sep-16 07:33N 43°26' E 004°54'0 0.0
2014-Sep-16 06:33N 43°26' E 004°54'0 0.0
2014-Sep-16 05:33N 43°26' E 004°54'0 0.0
2014-Sep-16 04:33N 43°26' E 004°54'0 0.0
2014-Sep-16 03:33N 43°26' E 004°54'0 0.0
2014-Sep-16 02:33N 43°26' E 004°54'0 0.0
2014-Sep-16 01:33N 43°26' E 004°54'0 0.0
2014-Sep-16 00:33N 43°26' E 004°54'0 0.0
2014-Sep-15 23:33N 43°26' E 004°54'0 0.0
2014-Sep-15 22:33N 43°26' E 004°54'0 0.0
2014-Sep-15 21:33N 43°26' E 004°54'0 0.0
2014-Sep-15 20:33N 43°26' E 004°54'0 0.0
2014-Sep-15 19:33N 43°26' E 004°54'0 0.0
2014-Sep-15 18:33N 43°26' E 004°54'0 0.0
2014-Sep-15 17:33N 43°26' E 004°54'0 0.0
2014-Sep-15 16:33N 43°26' E 004°54'2 2.3
2014-Sep-15 15:34N 43°25' E 004°56'0 0.1
2014-Sep-15 14:33N 43°25' E 004°56'0 0.0
2014-Sep-15 13:33N 43°25' E 004°56'0 0.0
2014-Sep-15 12:30N 43°25' E 004°56'0 0.0
2014-Sep-15 11:30N 43°25' E 004°56'0 0.0
2014-Sep-15 10:33N 43°25' E 004°56'0 0.0
2014-Sep-15 09:33N 43°25' E 004°56'0 0.0
2014-Sep-15 08:33N 43°25' E 004°56'0 0.0
2014-Sep-15 07:33N 43°25' E 004°56'0 0.0
2014-Sep-15 06:33N 43°25' E 004°56'0 0.0
2014-Sep-15 05:33N 43°25' E 004°56'0 0.0
2014-Sep-15 04:33N 43°25' E 004°56'0 0.1
2014-Sep-15 03:33N 43°25' E 004°56'0 0.0
2014-Sep-15 02:33N 43°25' E 004°56'0 0.0
2014-Sep-15 01:33N 43°25' E 004°56'0 0.0
2014-Sep-15 00:33N 43°25' E 004°56'0 0.0
2014-Sep-14 23:33N 43°25' E 004°56'0 0.0
2014-Sep-14 22:33N 43°25' E 004°56'0 0.0
2014-Sep-14 21:33N 43°25' E 004°56'0 0.0
2014-Sep-14 20:33N 43°25' E 004°56'0 0.0
2014-Sep-14 19:33N 43°25' E 004°56'0 0.0
2014-Sep-14 18:33N 43°25' E 004°56'0 0.0
2014-Sep-14 17:33N 43°25' E 004°56'0 0.0
2014-Sep-14 16:33N 43°25' E 004°56'0 0.0
2014-Sep-14 15:33N 43°25' E 004°56'0 0.0
2014-Sep-14 14:33N 43°25' E 004°56'0 0.0
2014-Sep-14 13:33N 43°25' E 004°56'0 0.0
2014-Sep-14 12:33N 43°25' E 004°56'0 0.0
2014-Sep-14 11:33N 43°25' E 004°56'0 0.0
2014-Sep-14 10:33N 43°25' E 004°56'0 0.0
2014-Sep-14 09:33N 43°25' E 004°56'0 0.0
2014-Sep-14 08:33N 43°25' E 004°56'0 0.0
2014-Sep-14 07:33N 43°25' E 004°56'0 0.0
2014-Sep-14 06:33N 43°25' E 004°56'0 0.0
2014-Sep-14 05:33N 43°25' E 004°56'0 0.0
2014-Sep-14 04:33N 43°25' E 004°56'0 0.0
2014-Sep-14 03:33N 43°25' E 004°56'0 0.0
2014-Sep-14 02:33N 43°25' E 004°56'0 0.0
2014-Sep-14 01:33N 43°25' E 004°56'0 0.0
2014-Sep-13 21:33N 43°25' E 004°56'0 0.0
2014-Sep-13 20:33N 43°25' E 004°56'5 4.7
2014-Sep-13 19:33N 43°20' E 004°59'1110.6
2014-Sep-13 18:33N 43°10' E 005°00'1312.8
2014-Sep-13 17:33N 43°00' E 004°48'2712.7
2014-Sep-13 15:26N 42°40' E 004°24'1112.6
2014-Sep-13 14:33N 42°32' E 004°14'1312.6
2014-Sep-13 13:32N 42°22' E 004°03'1312.5
2014-Sep-13 12:29N 42°12' E 003°51'1212.8
2014-Sep-13 11:32N 42°03' E 003°40'1212.3
2014-Sep-13 10:33N 41°54' E 003°30'1312.9
2014-Sep-13 09:32N 41°44' E 003°18'1412.7
2014-Sep-13 08:25N 41°34' E 003°04'1212.6
2014-Sep-13 07:27N 41°26' E 002°53'1511.9
2014-Sep-13 06:11N 41°16' E 002°38'811.9
2014-Sep-13 05:33N 41°11' E 002°30'1212.3
2014-Sep-13 04:33N 41°04' E 002°17'1212.1
2014-Sep-13 03:33N 40°56' E 002°04'1212.4
2014-Sep-13 02:33N 40°49' E 001°51'1312.7
2014-Sep-13 01:33N 40°41' E 001°38'1312.5
2014-Sep-13 00:33N 40°33' E 001°25'1212.4
2014-Sep-12 23:33N 40°26' E 001°12'1312.6
2014-Sep-12 22:33N 40°18' E 000°58'1313.0
2014-Sep-12 21:32N 40°10' E 000°45'1313.5
2014-Sep-12 20:32N 40°02' E 000°31'4013.1
2014-Sep-12 17:30N 39°37' W 000°09'3 1.1
2014-Sep-12 14:23N 39°39' W 000°13'0 0.0
2014-Sep-12 13:29N 39°39' W 000°13'3 0.6
2014-Sep-12 08:17N 39°37' W 000°10'1 0.7
2014-Sep-12 07:31N 39°37' W 000°09'0 0.0
2014-Sep-12 06:31N 39°37' W 000°09'0 0.0
2014-Sep-12 05:25N 39°37' W 000°09'0 0.0
2014-Sep-12 04:31N 39°37' W 000°09'0 0.0
2014-Sep-12 03:31N 39°37' W 000°09'0 0.0
2014-Sep-12 02:31N 39°37' W 000°09'0 0.0
2014-Sep-12 01:31N 39°37' W 000°09'0 0.0
2014-Sep-12 00:31N 39°37' W 000°09'0 0.0
2014-Sep-11 23:31N 39°37' W 000°09'0 0.0
2014-Sep-11 22:22N 39°37' W 000°09'0 0.1
2014-Sep-11 20:07N 39°37' W 000°09'0 0.1
2014-Sep-11 19:25N 39°37' W 000°09'0 0.0
2014-Sep-11 18:31N 39°37' W 000°09'0 0.0
2014-Sep-11 17:31N 39°37' W 000°09'0 0.0
2014-Sep-11 16:31N 39°37' W 000°09'0 0.0
2014-Sep-11 13:31N 39°37' W 000°09'0 0.0
2014-Sep-11 12:19N 39°37' W 000°09'0 0.0
2014-Sep-11 10:19N 39°37' W 000°09'4 4.5
2014-Sep-11 09:31N 39°33' W 000°08'2912.8
2014-Sep-11 07:13N 39°07' E 000°10'1412.9
2014-Sep-11 06:10N 38°55' E 000°18'912.8
2014-Sep-11 05:30N 38°48' E 000°23'1211.0
2014-Sep-11 04:25N 38°36' E 000°22'3813.1
2014-Sep-11 01:31N 38°04' W 000°04'1613.1
2014-Sep-11 00:16N 37°51' W 000°16'1013.0
2014-Sep-10 23:31N 37°43' W 000°23'1313.1
2014-Sep-10 22:33N 37°32' W 000°32'1413.1
2014-Sep-10 21:30N 37°23' W 000°45'1212.8
2014-Sep-10 20:32N 37°15' W 000°57'1313.1
2014-Sep-10 19:33N 37°07' W 001°09'2612.9
2014-Sep-10 17:32N 36°50' W 001°34'  
Track history (hours):
 
Tides and Currents Weather Stations Pressure Air Temp Water Temp Dewpoint Dewpoint Depression Visibility Wind Speed Wind Dir Waves Ship Positions

N.dadayli

Last reported at 2014-Sep-17 21:33 UTC. Time now 2014-Sep-18 19:49 UTC.
Position N 42°08' E 007°19'.

Length 101 m; draft 8.3 m.

Type: Ship. MMSI: 271000768.

Date/timePositionNaut miles runAvg speedWind from/ knotsBaromVisibWave heightAir tempDewpointWater temp
2014-Sep-17 21:33N 42°08' E 007°19'1110.4
2014-Sep-17 20:28N 42°15' E 007°06'1010.6
2014-Sep-17 19:32N 42°20' E 006°55'1210.9
2014-Sep-17 18:27N 42°27' E 006°42'1010.8
2014-Sep-17 17:33N 42°32' E 006°31'1210.6
2014-Sep-17 16:24N 42°39' E 006°17'910.3
2014-Sep-17 15:31N 42°44' E 006°07'10 9.7
2014-Sep-17 14:29N 42°50' E 005°55'9 9.0
2014-Sep-17 13:31N 42°54' E 005°45'9 9.0
2014-Sep-17 12:32N 42°59' E 005°36'17 8.6
2014-Sep-17 10:32N 43°09' E 005°16'8 8.6
2014-Sep-17 09:33N 43°14' E 005°07'9 9.3
2014-Sep-17 08:33N 43°21' E 004°58'6 5.8
2014-Sep-17 07:33N 43°26' E 004°54'0 0.0
2014-Sep-17 06:33N 43°26' E 004°54'0 0.0
2014-Sep-17 05:33N 43°26' E 004°54'0 0.0
2014-Sep-17 04:33N 43°26' E 004°54'0 0.0
2014-Sep-17 03:33N 43°26' E 004°54'0 0.0
2014-Sep-17 02:33N 43°26' E 004°54'0 0.0
2014-Sep-17 01:33N 43°26' E 004°54'0 0.0
2014-Sep-17 00:33N 43°26' E 004°54'0 0.0
2014-Sep-16 23:33N 43°26' E 004°54'0 0.0
2014-Sep-16 22:33N 43°26' E 004°54'0 0.0
2014-Sep-16 21:33N 43°26' E 004°54'0 0.0
2014-Sep-16 20:33N 43°26' E 004°54'0 0.0
2014-Sep-16 19:33N 43°26' E 004°54'0 0.0
2014-Sep-16 18:33N 43°26' E 004°54'0 0.0
2014-Sep-16 17:33N 43°26' E 004°54'0 0.0
2014-Sep-16 16:33N 43°26' E 004°54'0 0.0
2014-Sep-16 15:33N 43°26' E 004°54'0 0.0
2014-Sep-16 14:33N 43°26' E 004°54'0 0.0
2014-Sep-16 13:33N 43°26' E 004°54'0 0.0
2014-Sep-16 12:33N 43°26' E 004°54'0 0.0
2014-Sep-16 11:33N 43°26' E 004°54'0 0.0
2014-Sep-16 10:33N 43°26' E 004°54'0 0.0
2014-Sep-16 09:33N 43°26' E 004°54'0 0.0
2014-Sep-16 08:33N 43°26' E 004°54'0 0.0
2014-Sep-16 07:33N 43°26' E 004°54'0 0.0
2014-Sep-16 06:33N 43°26' E 004°54'0 0.0
2014-Sep-16 05:33N 43°26' E 004°54'0 0.0
2014-Sep-16 04:33N 43°26' E 004°54'0 0.0
2014-Sep-16 03:33N 43°26' E 004°54'0 0.0
2014-Sep-16 02:33N 43°26' E 004°54'0 0.0
2014-Sep-16 01:33N 43°26' E 004°54'0 0.0
2014-Sep-16 00:33N 43°26' E 004°54'0 0.0
2014-Sep-15 23:33N 43°26' E 004°54'0 0.0
2014-Sep-15 22:33N 43°26' E 004°54'0 0.0
2014-Sep-15 21:33N 43°26' E 004°54'0 0.0
2014-Sep-15 20:33N 43°26' E 004°54'0 0.0
2014-Sep-15 19:33N 43°26' E 004°54'0 0.0
2014-Sep-15 18:33N 43°26' E 004°54'0 0.0
2014-Sep-15 17:33N 43°26' E 004°54'0 0.0
2014-Sep-15 16:33N 43°26' E 004°54'2 2.3
2014-Sep-15 15:34N 43°25' E 004°56'0 0.1
2014-Sep-15 14:33N 43°25' E 004°56'0 0.0
2014-Sep-15 13:33N 43°25' E 004°56'0 0.0
2014-Sep-15 12:30N 43°25' E 004°56'0 0.0
2014-Sep-15 11:30N 43°25' E 004°56'0 0.0
2014-Sep-15 10:33N 43°25' E 004°56'0 0.0
2014-Sep-15 09:33N 43°25' E 004°56'0 0.0
2014-Sep-15 08:33N 43°25' E 004°56'0 0.0
2014-Sep-15 07:33N 43°25' E 004°56'0 0.0
2014-Sep-15 06:33N 43°25' E 004°56'0 0.0
2014-Sep-15 05:33N 43°25' E 004°56'0 0.0
2014-Sep-15 04:33N 43°25' E 004°56'0 0.1
2014-Sep-15 03:33N 43°25' E 004°56'0 0.0
2014-Sep-15 02:33N 43°25' E 004°56'0 0.0
2014-Sep-15 01:33N 43°25' E 004°56'0 0.0
2014-Sep-15 00:33N 43°25' E 004°56'0 0.0
2014-Sep-14 23:33N 43°25' E 004°56'0 0.0
2014-Sep-14 22:33N 43°25' E 004°56'0 0.0
2014-Sep-14 21:33N 43°25' E 004°56'0 0.0
2014-Sep-14 20:33N 43°25' E 004°56'0 0.0
2014-Sep-14 19:33N 43°25' E 004°56'0 0.0
2014-Sep-14 18:33N 43°25' E 004°56'0 0.0
2014-Sep-14 17:33N 43°25' E 004°56'0 0.0
2014-Sep-14 16:33N 43°25' E 004°56'0 0.0
2014-Sep-14 15:33N 43°25' E 004°56'0 0.0
2014-Sep-14 14:33N 43°25' E 004°56'0 0.0
2014-Sep-14 13:33N 43°25' E 004°56'0 0.0
2014-Sep-14 12:33N 43°25' E 004°56'0 0.0
2014-Sep-14 11:33N 43°25' E 004°56'0 0.0
2014-Sep-14 10:33N 43°25' E 004°56'0 0.0
2014-Sep-14 09:33N 43°25' E 004°56'0 0.0
2014-Sep-14 08:33N 43°25' E 004°56'0 0.0
2014-Sep-14 07:33N 43°25' E 004°56'0 0.0
2014-Sep-14 06:33N 43°25' E 004°56'0 0.0
2014-Sep-14 05:33N 43°25' E 004°56'0 0.0
2014-Sep-14 04:33N 43°25' E 004°56'0 0.0
2014-Sep-14 03:33N 43°25' E 004°56'0 0.0
2014-Sep-14 02:33N 43°25' E 004°56'0 0.0
2014-Sep-14 01:33N 43°25' E 004°56'0 0.0
2014-Sep-13 21:33N 43°25' E 004°56'0 0.0
2014-Sep-13 20:33N 43°25' E 004°56'5 4.7
2014-Sep-13 19:33N 43°20' E 004°59'1110.6
2014-Sep-13 18:33N 43°10' E 005°00'1312.8
2014-Sep-13 17:33N 43°00' E 004°48'2712.7
2014-Sep-13 15:26N 42°40' E 004°24'1112.6
2014-Sep-13 14:33N 42°32' E 004°14'1312.6
2014-Sep-13 13:32N 42°22' E 004°03'1312.5
2014-Sep-13 12:29N 42°12' E 003°51'1212.8
2014-Sep-13 11:32N 42°03' E 003°40'1212.3
2014-Sep-13 10:33N 41°54' E 003°30'1312.9
2014-Sep-13 09:32N 41°44' E 003°18'1412.7
2014-Sep-13 08:25N 41°34' E 003°04'1212.6
2014-Sep-13 07:27N 41°26' E 002°53'1511.9
2014-Sep-13 06:11N 41°16' E 002°38'811.9
2014-Sep-13 05:33N 41°11' E 002°30'1212.3
2014-Sep-13 04:33N 41°04' E 002°17'1212.1
2014-Sep-13 03:33N 40°56' E 002°04'1212.4
2014-Sep-13 02:33N 40°49' E 001°51'1312.7
2014-Sep-13 01:33N 40°41' E 001°38'1312.5
2014-Sep-13 00:33N 40°33' E 001°25'1212.4
2014-Sep-12 23:33N 40°26' E 001°12'1312.6
2014-Sep-12 22:33N 40°18' E 000°58'1313.0
2014-Sep-12 21:32N 40°10' E 000°45'1313.5
2014-Sep-12 20:32N 40°02' E 000°31'4013.1
2014-Sep-12 17:30N 39°37' W 000°09'3 1.1
2014-Sep-12 14:23N 39°39' W 000°13'0 0.0
2014-Sep-12 13:29N 39°39' W 000°13'3 0.6
2014-Sep-12 08:17N 39°37' W 000°10'1 0.7
2014-Sep-12 07:31N 39°37' W 000°09'0 0.0
2014-Sep-12 06:31N 39°37' W 000°09'0 0.0
2014-Sep-12 05:25N 39°37' W 000°09'0 0.0
2014-Sep-12 04:31N 39°37' W 000°09'0 0.0
2014-Sep-12 03:31N 39°37' W 000°09'0 0.0
2014-Sep-12 02:31N 39°37' W 000°09'0 0.0
2014-Sep-12 01:31N 39°37' W 000°09'0 0.0
2014-Sep-12 00:31N 39°37' W 000°09'0 0.0
2014-Sep-11 23:31N 39°37' W 000°09'0 0.0
2014-Sep-11 22:22N 39°37' W 000°09'0 0.1
2014-Sep-11 20:07N 39°37' W 000°09'0 0.1
2014-Sep-11 19:25N 39°37' W 000°09'0 0.0
2014-Sep-11 18:31N 39°37' W 000°09'0 0.0
2014-Sep-11 17:31N 39°37' W 000°09'0 0.0
2014-Sep-11 16:31N 39°37' W 000°09'0 0.0
2014-Sep-11 13:31N 39°37' W 000°09'0 0.0
2014-Sep-11 12:19N 39°37' W 000°09'0 0.0
2014-Sep-11 10:19N 39°37' W 000°09'4 4.5
2014-Sep-11 09:31N 39°33' W 000°08'2912.8
2014-Sep-11 07:13N 39°07' E 000°10'1412.9
2014-Sep-11 06:10N 38°55' E 000°18'912.8
2014-Sep-11 05:30N 38°48' E 000°23'1211.0
2014-Sep-11 04:25N 38°36' E 000°22'3813.1
2014-Sep-11 01:31N 38°04' W 000°04'1613.1
2014-Sep-11 00:16N 37°51' W 000°16'1013.0
2014-Sep-10 23:31N 37°43' W 000°23'1313.1
2014-Sep-10 22:33N 37°32' W 000°32'1413.1
2014-Sep-10 21:30N 37°23' W 000°45'1212.8
2014-Sep-10 20:32N 37°15' W 000°57'1313.1
2014-Sep-10 19:33N 37°07' W 001°09'2612.9
2014-Sep-10 17:32N 36°50' W 001°34'  

Dump ship's entire track history